sensor_id;sensor_type;location;lat;lon;timestamp;pressure;altitude;pressure_sealevel;temperature;humidity
15405;BME280;7801;48.124;11.590;2022-11-03T00:01:12;95898.50;;;12.33;90.95
15405;BME280;7801;48.124;11.590;2022-11-03T00:03:38;95894.16;;;12.23;89.35
15405;BME280;7801;48.124;11.590;2022-11-03T00:06:06;95896.88;;;12.18;89.96
15405;BME280;7801;48.124;11.590;2022-11-03T00:08:38;95894.47;;;12.03;89.15
15405;BME280;7801;48.124;11.590;2022-11-03T00:11:11;95889.09;;;12.41;90.16
15405;BME280;7801;48.124;11.590;2022-11-03T00:13:41;95888.47;;;12.11;89.82
15405;BME280;7801;48.124;11.590;2022-11-03T00:16:10;95875.69;;;12.13;88.67
15405;BME280;7801;48.124;11.590;2022-11-03T00:18:38;95879.19;;;11.90;89.70
15405;BME280;7801;48.124;11.590;2022-11-03T00:21:07;95871.44;;;12.12;90.60
15405;BME280;7801;48.124;11.590;2022-11-03T00:23:45;95870.44;;;12.08;89.40
15405;BME280;7801;48.124;11.590;2022-11-03T00:26:16;95858.50;;;12.24;90.08
15405;BME280;7801;48.124;11.590;2022-11-03T00:29:08;95850.84;;;12.36;90.32
15405;BME280;7801;48.124;11.590;2022-11-03T00:31:37;95851.38;;;12.20;89.36
15405;BME280;7801;48.124;11.590;2022-11-03T00:34:08;95843.16;;;12.35;89.29
15405;BME280;7801;48.124;11.590;2022-11-03T00:36:40;95851.34;;;12.38;89.74
15405;BME280;7801;48.124;11.590;2022-11-03T00:39:09;95850.69;;;12.28;89.50
15405;BME280;7801;48.124;11.590;2022-11-03T00:41:35;95851.09;;;12.21;89.15
15405;BME280;7801;48.124;11.590;2022-11-03T00:44:03;95848.00;;;12.14;90.32
15405;BME280;7801;48.124;11.590;2022-11-03T00:46:31;95857.38;;;11.93;87.94
15405;BME280;7801;48.124;11.590;2022-11-03T00:49:03;95843.94;;;12.03;89.69
15405;BME280;7801;48.124;11.590;2022-11-03T00:51:30;95833.38;;;12.30;90.16
15405;BME280;7801;48.124;11.590;2022-11-03T00:54:03;95830.47;;;12.13;89.02
15405;BME280;7801;48.124;11.590;2022-11-03T00:56:37;95828.56;;;12.32;89.86
15405;BME280;7801;48.124;11.590;2022-11-03T00:59:08;95821.16;;;12.29;89.76
15405;BME280;7801;48.124;11.590;2022-11-03T01:01:44;95815.03;;;12.29;90.13
15405;BME280;7801;48.124;11.590;2022-11-03T01:04:11;95819.38;;;12.25;90.71
15405;BME280;7801;48.124;11.590;2022-11-03T01:06:59;95819.25;;;12.16;90.01
15405;BME280;7801;48.124;11.590;2022-11-03T01:09:37;95813.75;;;12.26;90.62
15405;BME280;7801;48.124;11.590;2022-11-03T01:12:17;95810.91;;;12.23;90.34
15405;BME280;7801;48.124;11.590;2022-11-03T01:14:51;95818.84;;;11.90;89.56
15405;BME280;7801;48.124;11.590;2022-11-03T01:17:25;95811.69;;;12.23;90.04
15405;BME280;7801;48.124;11.590;2022-11-03T01:19:56;95809.16;;;11.99;90.35
15405;BME280;7801;48.124;11.590;2022-11-03T01:22:25;95799.69;;;12.07;89.73
15405;BME280;7801;48.124;11.590;2022-11-03T01:24:52;95799.66;;;11.93;92.22
15405;BME280;7801;48.124;11.590;2022-11-03T01:27:20;95797.66;;;11.85;89.81
15405;BME280;7801;48.124;11.590;2022-11-03T01:29:47;95799.75;;;12.21;90.47
15405;BME280;7801;48.124;11.590;2022-11-03T01:32:13;95796.78;;;11.90;89.62
15405;BME280;7801;48.124;11.590;2022-11-03T01:34:39;95798.22;;;11.63;88.32
15405;BME280;7801;48.124;11.590;2022-11-03T01:37:06;95797.00;;;11.93;90.33
15405;BME280;7801;48.124;11.590;2022-11-03T01:39:33;95806.12;;;11.87;89.57
15405;BME280;7801;48.124;11.590;2022-11-03T01:42:00;95801.31;;;11.89;89.93
15405;BME280;7801;48.124;11.590;2022-11-03T01:44:34;95803.91;;;11.94;90.20
15405;BME280;7801;48.124;11.590;2022-11-03T01:47:25;95798.19;;;12.20;90.37
15405;BME280;7801;48.124;11.590;2022-11-03T01:50:16;95802.37;;;11.69;89.66
15405;BME280;7801;48.124;11.590;2022-11-03T01:52:55;95792.69;;;11.41;91.46
15405;BME280;7801;48.124;11.590;2022-11-03T01:55:26;95795.47;;;11.68;90.44
15405;BME280;7801;48.124;11.590;2022-11-03T02:00:24;95772.63;;;11.67;91.22
15405;BME280;7801;48.124;11.590;2022-11-03T02:02:51;95778.66;;;11.73;89.31
15405;BME280;7801;48.124;11.590;2022-11-03T02:05:20;95779.25;;;11.51;89.52
15405;BME280;7801;48.124;11.590;2022-11-03T02:10:38;95771.56;;;11.68;89.11
15405;BME280;7801;48.124;11.590;2022-11-03T02:13:34;95775.41;;;11.81;88.66
15405;BME280;7801;48.124;11.590;2022-11-03T02:16:00;95769.63;;;11.55;89.27
15405;BME280;7801;48.124;11.590;2022-11-03T02:18:30;95756.88;;;11.76;89.32
15405;BME280;7801;48.124;11.590;2022-11-03T02:21:05;95753.38;;;11.94;89.16
15405;BME280;7801;48.124;11.590;2022-11-03T02:24:10;95750.97;;;11.60;90.08
15405;BME280;7801;48.124;11.590;2022-11-03T02:26:47;95749.25;;;11.51;89.27
15405;BME280;7801;48.124;11.590;2022-11-03T02:29:14;95742.22;;;11.60;90.57
15405;BME280;7801;48.124;11.590;2022-11-03T02:31:43;95750.31;;;11.31;90.02
15405;BME280;7801;48.124;11.590;2022-11-03T02:35:00;95743.13;;;11.13;90.61
15405;BME280;7801;48.124;11.590;2022-11-03T02:37:34;95741.28;;;11.32;92.21
15405;BME280;7801;48.124;11.590;2022-11-03T02:40:11;95744.38;;;11.58;90.34
15405;BME280;7801;48.124;11.590;2022-11-03T02:42:41;95740.69;;;11.54;90.50
15405;BME280;7801;48.124;11.590;2022-11-03T02:45:11;95737.53;;;11.52;89.17
15405;BME280;7801;48.124;11.590;2022-11-03T02:47:40;95733.28;;;11.51;91.31
15405;BME280;7801;48.124;11.590;2022-11-03T02:50:08;95738.88;;;11.68;91.44
15405;BME280;7801;48.124;11.590;2022-11-03T02:52:41;95739.06;;;11.77;90.36
15405;BME280;7801;48.124;11.590;2022-11-03T03:03:37;95718.59;;;11.40;91.13
15405;BME280;7801;48.124;11.590;2022-11-03T03:06:09;95712.56;;;11.34;91.40
15405;BME280;7801;48.124;11.590;2022-11-03T03:08:49;95707.66;;;11.03;91.08
15405;BME280;7801;48.124;11.590;2022-11-03T03:11:34;95706.53;;;11.10;91.72
15405;BME280;7801;48.124;11.590;2022-11-03T03:14:39;95700.00;;;11.40;91.79
15405;BME280;7801;48.124;11.590;2022-11-03T03:20:28;95701.59;;;11.22;90.60
15405;BME280;7801;48.124;11.590;2022-11-03T03:23:03;95686.94;;;11.06;90.34
15405;BME280;7801;48.124;11.590;2022-11-03T03:25:33;95683.19;;;11.07;89.86
15405;BME280;7801;48.124;11.590;2022-11-03T03:28:13;95677.47;;;10.99;90.73
15405;BME280;7801;48.124;11.590;2022-11-03T03:30:41;95665.06;;;11.14;91.59
15405;BME280;7801;48.124;11.590;2022-11-03T03:33:09;95671.72;;;11.11;90.76
15405;BME280;7801;48.124;11.590;2022-11-03T03:35:40;95676.12;;;11.21;91.78
15405;BME280;7801;48.124;11.590;2022-11-03T03:38:22;95666.19;;;11.26;91.25
15405;BME280;7801;48.124;11.590;2022-11-03T03:41:01;95672.22;;;11.13;91.69
15405;BME280;7801;48.124;11.590;2022-11-03T03:43:28;95675.94;;;11.31;91.50
15405;BME280;7801;48.124;11.590;2022-11-03T03:46:03;95678.84;;;10.97;90.89
15405;BME280;7801;48.124;11.590;2022-11-03T03:48:31;95677.88;;;11.07;93.38
15405;BME280;7801;48.124;11.590;2022-11-03T03:50:59;95689.44;;;10.78;91.35
15405;BME280;7801;48.124;11.590;2022-11-03T03:53:28;95681.13;;;11.03;91.83
15405;BME280;7801;48.124;11.590;2022-11-03T03:55:54;95688.22;;;11.08;91.67
15405;BME280;7801;48.124;11.590;2022-11-03T03:58:21;95681.84;;;10.90;90.37
15405;BME280;7801;48.124;11.590;2022-11-03T04:00:46;95674.66;;;11.10;90.60
15405;BME280;7801;48.124;11.590;2022-11-03T04:03:25;95670.19;;;11.24;91.07
15405;BME280;7801;48.124;11.590;2022-11-03T04:05:54;95661.94;;;11.25;90.81
15405;BME280;7801;48.124;11.590;2022-11-03T04:08:21;95669.00;;;10.97;89.96
15405;BME280;7801;48.124;11.590;2022-11-03T04:10:49;95658.34;;;10.60;88.96
15405;BME280;7801;48.124;11.590;2022-11-03T04:13:34;95658.50;;;10.68;93.41
15405;BME280;7801;48.124;11.590;2022-11-03T04:16:18;95643.53;;;10.96;92.30
15405;BME280;7801;48.124;11.590;2022-11-03T04:19:02;95649.97;;;10.90;91.96
15405;BME280;7801;48.124;11.590;2022-11-03T04:21:49;95652.62;;;11.09;92.26
15405;BME280;7801;48.124;11.590;2022-11-03T04:24:33;95647.66;;;10.65;89.34
15405;BME280;7801;48.124;11.590;2022-11-03T04:27:09;95652.47;;;10.82;92.04
15405;BME280;7801;48.124;11.590;2022-11-03T04:29:51;95643.31;;;10.93;92.54
15405;BME280;7801;48.124;11.590;2022-11-03T04:32:23;95641.16;;;10.95;90.31
15405;BME280;7801;48.124;11.590;2022-11-03T04:34:50;95639.06;;;10.73;92.55
15405;BME280;7801;48.124;11.590;2022-11-03T04:37:17;95640.28;;;10.81;91.66
15405;BME280;7801;48.124;11.590;2022-11-03T04:39:44;95637.31;;;10.21;88.89
15405;BME280;7801;48.124;11.590;2022-11-03T04:42:16;95638.59;;;9.76;89.04
15405;BME280;7801;48.124;11.590;2022-11-03T04:44:45;95633.22;;;9.81;94.08
15405;BME280;7801;48.124;11.590;2022-11-03T04:47:14;95636.63;;;9.86;94.53
15405;BME280;7801;48.124;11.590;2022-11-03T04:50:12;95628.34;;;10.17;95.12
15405;BME280;7801;48.124;11.590;2022-11-03T04:52:40;95624.84;;;10.21;91.84
15405;BME280;7801;48.124;11.590;2022-11-03T04:55:14;95619.09;;;9.90;93.14
15405;BME280;7801;48.124;11.590;2022-11-03T04:57:42;95624.41;;;10.14;94.26
15405;BME280;7801;48.124;11.590;2022-11-03T05:00:14;95601.50;;;10.23;94.22
15405;BME280;7801;48.124;11.590;2022-11-03T05:02:47;95604.13;;;10.47;93.83
15405;BME280;7801;48.124;11.590;2022-11-03T05:05:20;95600.09;;;10.31;92.82
15405;BME280;7801;48.124;11.590;2022-11-03T05:07:48;95601.09;;;10.11;90.93
15405;BME280;7801;48.124;11.590;2022-11-03T05:10:18;95593.50;;;10.28;93.17
15405;BME280;7801;48.124;11.590;2022-11-03T05:12:46;95589.94;;;10.14;93.39
15405;BME280;7801;48.124;11.590;2022-11-03T05:15:35;95583.97;;;10.27;93.03
15405;BME280;7801;48.124;11.590;2022-11-03T05:18:20;95573.09;;;10.48;93.20
15405;BME280;7801;48.124;11.590;2022-11-03T05:20:58;95565.91;;;10.29;91.95
15405;BME280;7801;48.124;11.590;2022-11-03T05:23:42;95572.53;;;10.51;91.57
15405;BME280;7801;48.124;11.590;2022-11-03T05:26:21;95576.75;;;10.33;92.42
15405;BME280;7801;48.124;11.590;2022-11-03T05:29:02;95570.53;;;10.19;91.74
15405;BME280;7801;48.124;11.590;2022-11-03T05:31:29;95577.19;;;10.16;91.14
15405;BME280;7801;48.124;11.590;2022-11-03T05:34:00;95568.94;;;10.18;91.80
15405;BME280;7801;48.124;11.590;2022-11-03T05:36:28;95573.75;;;10.16;92.28
15405;BME280;7801;48.124;11.590;2022-11-03T05:41:52;95567.50;;;10.30;92.62
15405;BME280;7801;48.124;11.590;2022-11-03T05:44:33;95567.75;;;10.05;92.86
15405;BME280;7801;48.124;11.590;2022-11-03T05:47:21;95556.31;;;10.10;93.47
15405;BME280;7801;48.124;11.590;2022-11-03T05:50:20;95547.28;;;10.11;92.34
15405;BME280;7801;48.124;11.590;2022-11-03T05:53:02;95554.50;;;10.05;93.04
15405;BME280;7801;48.124;11.590;2022-11-03T05:55:33;95553.34;;;10.16;94.65
15405;BME280;7801;48.124;11.590;2022-11-03T05:58:14;95544.53;;;10.40;93.44
15405;BME280;7801;48.124;11.590;2022-11-03T06:00:46;95546.09;;;9.98;93.44
15405;BME280;7801;48.124;11.590;2022-11-03T06:03:20;95537.16;;;10.18;91.08
15405;BME280;7801;48.124;11.590;2022-11-03T06:05:48;95538.28;;;9.88;91.49
15405;BME280;7801;48.124;11.590;2022-11-03T06:08:35;95536.13;;;10.14;92.87
15405;BME280;7801;48.124;11.590;2022-11-03T06:11:03;95539.41;;;10.06;92.33
15405;BME280;7801;48.124;11.590;2022-11-03T06:13:39;95523.94;;;10.13;93.81
15405;BME280;7801;48.124;11.590;2022-11-03T06:16:19;95534.63;;;9.84;94.17
15405;BME280;7801;48.124;11.590;2022-11-03T06:18:52;95527.19;;;9.86;96.03
15405;BME280;7801;48.124;11.590;2022-11-03T06:21:22;95536.94;;;9.67;94.54
15405;BME280;7801;48.124;11.590;2022-11-03T06:24:01;95527.47;;;9.84;94.61
15405;BME280;7801;48.124;11.590;2022-11-03T06:26:27;95528.25;;;9.85;94.21
15405;BME280;7801;48.124;11.590;2022-11-03T06:29:10;95532.38;;;9.96;94.56
15405;BME280;7801;48.124;11.590;2022-11-03T06:31:38;95540.47;;;10.05;95.73
15405;BME280;7801;48.124;11.590;2022-11-03T06:34:17;95533.44;;;9.95;94.27
15405;BME280;7801;48.124;11.590;2022-11-03T06:36:46;95536.81;;;10.00;95.30
15405;BME280;7801;48.124;11.590;2022-11-03T06:39:21;95541.66;;;9.46;90.89
15405;BME280;7801;48.124;11.590;2022-11-03T06:41:55;95536.72;;;9.63;94.43
15405;BME280;7801;48.124;11.590;2022-11-03T06:44:31;95535.03;;;9.96;95.12
15405;BME280;7801;48.124;11.590;2022-11-03T06:47:07;95536.19;;;10.09;95.39
15405;BME280;7801;48.124;11.590;2022-11-03T06:49:39;95533.00;;;9.88;93.36
15405;BME280;7801;48.124;11.590;2022-11-03T06:52:25;95530.53;;;9.96;93.64
15405;BME280;7801;48.124;11.590;2022-11-03T06:57:46;95529.38;;;10.03;92.49
15405;BME280;7801;48.124;11.590;2022-11-03T07:00:28;95538.28;;;9.11;88.05
15405;BME280;7801;48.124;11.590;2022-11-03T07:05:36;95539.59;;;9.14;86.72
15405;BME280;7801;48.124;11.590;2022-11-03T07:08:23;95522.03;;;9.23;86.23
15405;BME280;7801;48.124;11.590;2022-11-03T07:11:17;95518.81;;;8.97;86.92
15405;BME280;7801;48.124;11.590;2022-11-03T07:13:45;95519.69;;;8.87;87.47
15405;BME280;7801;48.124;11.590;2022-11-03T07:16:25;95516.16;;;8.97;87.48
15405;BME280;7801;48.124;11.590;2022-11-03T07:19:19;95514.13;;;8.55;88.55
15405;BME280;7801;48.124;11.590;2022-11-03T07:22:03;95506.31;;;8.35;90.25
15405;BME280;7801;48.124;11.590;2022-11-03T07:24:43;95504.25;;;8.21;90.70
15405;BME280;7801;48.124;11.590;2022-11-03T07:27:25;95506.09;;;8.26;91.08
15405;BME280;7801;48.124;11.590;2022-11-03T07:29:59;95510.56;;;8.31;90.70
15405;BME280;7801;48.124;11.590;2022-11-03T07:32:35;95514.97;;;7.91;92.15
15405;BME280;7801;48.124;11.590;2022-11-03T07:35:33;95518.19;;;7.83;92.84
15405;BME280;7801;48.124;11.590;2022-11-03T07:38:30;95512.84;;;7.98;92.74
15405;BME280;7801;48.124;11.590;2022-11-03T07:40:58;95510.69;;;8.10;92.43
15405;BME280;7801;48.124;11.590;2022-11-03T07:43:54;95510.25;;;7.88;93.21
15405;BME280;7801;48.124;11.590;2022-11-03T07:46:25;95509.69;;;7.96;92.97
15405;BME280;7801;48.124;11.590;2022-11-03T07:48:58;95511.06;;;7.83;93.44
15405;BME280;7801;48.124;11.590;2022-11-03T07:51:36;95502.28;;;7.93;93.57
15405;BME280;7801;48.124;11.590;2022-11-03T07:54:20;95494.03;;;8.10;92.91
15405;BME280;7801;48.124;11.590;2022-11-03T07:56:49;95493.19;;;8.14;92.52
15405;BME280;7801;48.124;11.590;2022-11-03T07:59:20;95494.44;;;8.32;91.86
15405;BME280;7801;48.124;11.590;2022-11-03T08:01:53;95489.84;;;8.48;91.40
15405;BME280;7801;48.124;11.590;2022-11-03T08:04:21;95474.59;;;8.35;92.16
15405;BME280;7801;48.124;11.590;2022-11-03T08:06:48;95474.41;;;8.21;92.90
15405;BME280;7801;48.124;11.590;2022-11-03T08:09:17;95470.69;;;8.27;92.95
15405;BME280;7801;48.124;11.590;2022-11-03T08:12:09;95459.84;;;8.28;93.07
15405;BME280;7801;48.124;11.590;2022-11-03T08:14:35;95460.13;;;8.22;92.90
15405;BME280;7801;48.124;11.590;2022-11-03T08:17:04;95451.72;;;8.54;91.51
15405;BME280;7801;48.124;11.590;2022-11-03T08:19:32;95447.44;;;8.63;91.35
15405;BME280;7801;48.124;11.590;2022-11-03T08:21:58;95444.38;;;8.80;90.36
15405;BME280;7801;48.124;11.590;2022-11-03T08:24:24;95436.06;;;8.91;89.57
15405;BME280;7801;48.124;11.590;2022-11-03T08:26:51;95423.25;;;9.04;89.13
15405;BME280;7801;48.124;11.590;2022-11-03T08:29:19;95428.84;;;8.97;89.48
15405;BME280;7801;48.124;11.590;2022-11-03T08:31:46;95410.06;;;8.99;89.55
15405;BME280;7801;48.124;11.590;2022-11-03T08:34:13;95411.81;;;9.08;89.58
15405;BME280;7801;48.124;11.590;2022-11-03T08:36:39;95404.31;;;9.15;89.51
15405;BME280;7801;48.124;11.590;2022-11-03T08:39:06;95407.75;;;9.16;89.66
15405;BME280;7801;48.124;11.590;2022-11-03T08:41:32;95397.63;;;9.23;89.53
15405;BME280;7801;48.124;11.590;2022-11-03T08:43:57;95394.97;;;9.23;89.98
15405;BME280;7801;48.124;11.590;2022-11-03T08:46:28;95392.28;;;9.28;89.94
15405;BME280;7801;48.124;11.590;2022-11-03T08:48:53;95391.06;;;9.39;90.29
15405;BME280;7801;48.124;11.590;2022-11-03T08:51:20;95390.00;;;9.40;90.18
15405;BME280;7801;48.124;11.590;2022-11-03T08:53:45;95380.31;;;9.54;89.78
15405;BME280;7801;48.124;11.590;2022-11-03T08:56:25;95380.44;;;9.82;89.12
15405;BME280;7801;48.124;11.590;2022-11-03T08:58:52;95379.88;;;9.85;89.20
15405;BME280;7801;48.124;11.590;2022-11-03T09:01:17;95371.50;;;9.78;89.55
15405;BME280;7801;48.124;11.590;2022-11-03T09:03:44;95369.16;;;9.95;89.37
15405;BME280;7801;48.124;11.590;2022-11-03T09:06:10;95374.50;;;10.09;88.86
15405;BME280;7801;48.124;11.590;2022-11-03T09:08:37;95360.09;;;10.33;88.13
15405;BME280;7801;48.124;11.590;2022-11-03T09:11:07;95366.53;;;10.27;88.36
15405;BME280;7801;48.124;11.590;2022-11-03T09:13:33;95364.72;;;10.42;87.63
15405;BME280;7801;48.124;11.590;2022-11-03T09:16:00;95366.28;;;10.43;87.43
15405;BME280;7801;48.124;11.590;2022-11-03T09:18:26;95352.66;;;10.49;87.43
15405;BME280;7801;48.124;11.590;2022-11-03T09:20:53;95361.81;;;10.57;86.94
15405;BME280;7801;48.124;11.590;2022-11-03T09:23:18;95349.78;;;10.78;86.43
15405;BME280;7801;48.124;11.590;2022-11-03T09:25:43;95346.44;;;10.86;87.15
15405;BME280;7801;48.124;11.590;2022-11-03T09:28:10;95336.31;;;10.88;86.58
15405;BME280;7801;48.124;11.590;2022-11-03T09:30:36;95330.81;;;11.12;85.67
15405;BME280;7801;48.124;11.590;2022-11-03T09:33:04;95323.63;;;11.13;86.04
15405;BME280;7801;48.124;11.590;2022-11-03T09:35:30;95323.41;;;11.23;85.57
15405;BME280;7801;48.124;11.590;2022-11-03T09:37:57;95326.75;;;11.28;85.65
15405;BME280;7801;48.124;11.590;2022-11-03T09:40:23;95318.47;;;11.44;85.02
15405;BME280;7801;48.124;11.590;2022-11-03T09:42:55;95313.47;;;11.64;84.31
15405;BME280;7801;48.124;11.590;2022-11-03T09:45:26;95314.47;;;11.68;84.26
15405;BME280;7801;48.124;11.590;2022-11-03T09:47:54;95318.69;;;11.69;84.18
15405;BME280;7801;48.124;11.590;2022-11-03T09:50:22;95313.06;;;11.85;83.44
15405;BME280;7801;48.124;11.590;2022-11-03T09:52:50;95306.84;;;11.89;83.58
15405;BME280;7801;48.124;11.590;2022-11-03T09:55:25;95309.09;;;11.96;83.11
15405;BME280;7801;48.124;11.590;2022-11-03T09:58:15;95306.66;;;12.08;83.69
15405;BME280;7801;48.124;11.590;2022-11-03T10:01:11;95303.47;;;12.20;82.49
15405;BME280;7801;48.124;11.590;2022-11-03T10:03:39;95304.28;;;12.29;82.05
15405;BME280;7801;48.124;11.590;2022-11-03T10:06:07;95298.50;;;12.27;82.33
15405;BME280;7801;48.124;11.590;2022-11-03T10:08:43;95295.53;;;12.28;81.93
15405;BME280;7801;48.124;11.590;2022-11-03T10:11:16;95293.41;;;12.39;81.87
15405;BME280;7801;48.124;11.590;2022-11-03T10:13:46;95276.69;;;12.47;81.55
15405;BME280;7801;48.124;11.590;2022-11-03T10:16:23;95268.75;;;12.56;81.31
15405;BME280;7801;48.124;11.590;2022-11-03T10:18:49;95273.13;;;12.52;80.84
15405;BME280;7801;48.124;11.590;2022-11-03T10:21:24;95265.50;;;12.59;80.81
15405;BME280;7801;48.124;11.590;2022-11-03T10:23:51;95258.59;;;12.58;81.66
15405;BME280;7801;48.124;11.590;2022-11-03T10:26:18;95262.09;;;12.67;80.27
15405;BME280;7801;48.124;11.590;2022-11-03T10:29:04;95250.22;;;12.82;79.25
15405;BME280;7801;48.124;11.590;2022-11-03T10:31:37;95245.56;;;12.96;78.40
15405;BME280;7801;48.124;11.590;2022-11-03T10:34:06;95244.91;;;12.90;78.92
15405;BME280;7801;48.124;11.590;2022-11-03T10:36:49;95241.97;;;13.00;78.94
15405;BME280;7801;48.124;11.590;2022-11-03T10:39:32;95239.69;;;13.16;77.67
15405;BME280;7801;48.124;11.590;2022-11-03T10:41:59;95233.56;;;13.16;76.91
15405;BME280;7801;48.124;11.590;2022-11-03T10:44:30;95240.62;;;13.20;77.16
15405;BME280;7801;48.124;11.590;2022-11-03T10:47:03;95236.56;;;13.23;76.82
15405;BME280;7801;48.124;11.590;2022-11-03T10:49:34;95233.44;;;13.29;76.39
15405;BME280;7801;48.124;11.590;2022-11-03T10:52:18;95226.94;;;13.13;77.30
15405;BME280;7801;48.124;11.590;2022-11-03T10:55:08;95226.06;;;13.26;76.96
15405;BME280;7801;48.124;11.590;2022-11-03T10:57:35;95222.94;;;13.33;76.42
15405;BME280;7801;48.124;11.590;2022-11-03T11:00:03;95215.25;;;13.31;76.44
15405;BME280;7801;48.124;11.590;2022-11-03T11:02:31;95208.84;;;13.41;76.28
15405;BME280;7801;48.124;11.590;2022-11-03T11:05:07;95216.97;;;13.36;76.59
15405;BME280;7801;48.124;11.590;2022-11-03T11:07:45;95212.13;;;13.47;75.48
15405;BME280;7801;48.124;11.590;2022-11-03T11:10:17;95218.41;;;13.42;75.66
15405;BME280;7801;48.124;11.590;2022-11-03T11:13:25;95209.94;;;13.40;75.86
15405;BME280;7801;48.124;11.590;2022-11-03T11:15:56;95200.69;;;13.37;76.55
15405;BME280;7801;48.124;11.590;2022-11-03T11:21:48;95202.25;;;13.47;76.09
15405;BME280;7801;48.124;11.590;2022-11-03T11:23:55;95193.78;;;13.45;76.28
15405;BME280;7801;48.124;11.590;2022-11-03T11:26:33;95195.81;;;13.39;77.43
15405;BME280;7801;48.124;11.590;2022-11-03T11:39:49;95194.41;;;13.59;75.71
15405;BME280;7801;48.124;11.590;2022-11-03T11:42:20;95193.94;;;13.66;76.16
15405;BME280;7801;48.124;11.590;2022-11-03T11:44:57;95189.03;;;13.76;78.69
15405;BME280;7801;48.124;11.590;2022-11-03T11:47:44;95183.09;;;13.80;79.10
15405;BME280;7801;48.124;11.590;2022-11-03T11:50:21;95174.03;;;13.63;79.97
15405;BME280;7801;48.124;11.590;2022-11-03T11:53:12;95176.03;;;13.75;80.04
15405;BME280;7801;48.124;11.590;2022-11-03T11:55:44;95167.41;;;13.78;79.95
15405;BME280;7801;48.124;11.590;2022-11-03T12:00:57;95172.09;;;13.72;80.18
15405;BME280;7801;48.124;11.590;2022-11-03T12:03:45;95171.63;;;13.79;80.16
15405;BME280;7801;48.124;11.590;2022-11-03T12:06:13;95156.09;;;13.81;80.04
15405;BME280;7801;48.124;11.590;2022-11-03T12:08:43;95149.00;;;13.94;79.42
15405;BME280;7801;48.124;11.590;2022-11-03T12:11:11;95145.56;;;13.93;79.43
15405;BME280;7801;48.124;11.590;2022-11-03T12:13:47;95143.22;;;13.92;79.49
15405;BME280;7801;48.124;11.590;2022-11-03T12:16:33;95151.81;;;13.97;79.36
15405;BME280;7801;48.124;11.590;2022-11-03T12:22:00;95153.00;;;13.70;80.84
15405;BME280;7801;48.124;11.590;2022-11-03T12:26:55;95145.59;;;13.85;80.26
15405;BME280;7801;48.124;11.590;2022-11-03T12:29:22;95149.81;;;13.86;80.23
15405;BME280;7801;48.124;11.590;2022-11-03T12:31:49;95150.75;;;13.90;80.25
15405;BME280;7801;48.124;11.590;2022-11-03T12:34:16;95140.69;;;13.95;80.19
15405;BME280;7801;48.124;11.590;2022-11-03T12:36:44;95134.41;;;14.00;78.93
15405;BME280;7801;48.124;11.590;2022-11-03T12:39:12;95130.22;;;13.90;79.17
15405;BME280;7801;48.124;11.590;2022-11-03T12:41:39;95114.53;;;13.89;79.10
15405;BME280;7801;48.124;11.590;2022-11-03T12:44:05;95115.44;;;13.93;78.97
15405;BME280;7801;48.124;11.590;2022-11-03T12:46:32;95119.34;;;14.04;78.51
15405;BME280;7801;48.124;11.590;2022-11-03T12:48:57;95111.34;;;13.95;78.53
15405;BME280;7801;48.124;11.590;2022-11-03T12:51:24;95111.34;;;13.95;78.34
15405;BME280;7801;48.124;11.590;2022-11-03T12:53:51;95114.13;;;13.69;79.91
15405;BME280;7801;48.124;11.590;2022-11-03T12:56:18;95113.59;;;13.76;80.25
15405;BME280;7801;48.124;11.590;2022-11-03T12:58:45;95118.47;;;13.83;80.29
15405;BME280;7801;48.124;11.590;2022-11-03T13:01:11;95104.50;;;13.86;80.29
15405;BME280;7801;48.124;11.590;2022-11-03T13:03:37;95106.84;;;13.79;80.59
15405;BME280;7801;48.124;11.590;2022-11-03T13:06:06;95094.28;;;13.88;80.70
15405;BME280;7801;48.124;11.590;2022-11-03T13:08:35;95086.75;;;13.90;80.33
15405;BME280;7801;48.124;11.590;2022-11-03T13:11:02;95078.88;;;13.93;80.76
15405;BME280;7801;48.124;11.590;2022-11-03T13:13:29;95077.50;;;13.87;80.71
15405;BME280;7801;48.124;11.590;2022-11-03T13:15:56;95075.47;;;13.84;81.03
15405;BME280;7801;48.124;11.590;2022-11-03T13:18:24;95060.69;;;13.95;80.94
15405;BME280;7801;48.124;11.590;2022-11-03T13:20:53;95064.13;;;13.96;81.35
15405;BME280;7801;48.124;11.590;2022-11-03T13:23:20;95049.97;;;14.04;80.77
15405;BME280;7801;48.124;11.590;2022-11-03T13:25:48;95057.22;;;13.95;81.60
15405;BME280;7801;48.124;11.590;2022-11-03T13:28:16;95050.69;;;13.84;82.36
15405;BME280;7801;48.124;11.590;2022-11-03T13:30:46;95052.13;;;13.81;82.79
15405;BME280;7801;48.124;11.590;2022-11-03T13:33:14;95049.78;;;13.80;83.25
15405;BME280;7801;48.124;11.590;2022-11-03T13:35:41;95047.59;;;13.73;83.71
15405;BME280;7801;48.124;11.590;2022-11-03T13:38:09;95037.28;;;13.71;84.04
15405;BME280;7801;48.124;11.590;2022-11-03T13:40:36;95042.78;;;13.66;83.98
15405;BME280;7801;48.124;11.590;2022-11-03T13:43:02;95043.25;;;13.68;84.09
15405;BME280;7801;48.124;11.590;2022-11-03T13:45:29;95027.88;;;13.65;84.36
15405;BME280;7801;48.124;11.590;2022-11-03T13:47:56;95026.00;;;13.57;84.67
15405;BME280;7801;48.124;11.590;2022-11-03T13:50:21;95020.41;;;13.50;84.43
15405;BME280;7801;48.124;11.590;2022-11-03T13:52:48;95017.75;;;13.50;84.52
15405;BME280;7801;48.124;11.590;2022-11-03T13:55:15;95009.56;;;13.55;84.30
15405;BME280;7801;48.124;11.590;2022-11-03T13:57:42;95009.47;;;13.72;83.05
15405;BME280;7801;48.124;11.590;2022-11-03T14:00:14;95009.53;;;13.64;83.75
15405;BME280;7801;48.124;11.590;2022-11-03T14:02:42;95006.19;;;13.75;83.37
15405;BME280;7801;48.124;11.590;2022-11-03T14:05:09;95013.16;;;13.59;84.03
15405;BME280;7801;48.124;11.590;2022-11-03T14:07:37;95014.63;;;13.31;85.62
15405;BME280;7801;48.124;11.590;2022-11-03T14:10:03;95014.41;;;13.53;85.15
15405;BME280;7801;48.124;11.590;2022-11-03T14:12:28;95002.34;;;13.56;85.23
15405;BME280;7801;48.124;11.590;2022-11-03T14:15:06;94999.34;;;13.57;84.98
15405;BME280;7801;48.124;11.590;2022-11-03T14:17:34;94983.44;;;13.40;85.96
15405;BME280;7801;48.124;11.590;2022-11-03T14:20:03;94984.25;;;13.32;86.58